VOL weather

Nea Anchialos Airport
Nea Anchialos, Magnesia, Greece

Public forecast

Using degrees Celsius for public forecast. Weather courtesy of forecast.io.

METAR (pilot weather report)

Retrieved 2018/06/21 00:50 UTC (1 hour ago):

LGBL 210050Z 28008KT 9999 FEW030 23/12 Q1015 RMK FEW100 FEW180 BLU

TAF (pilot weather forecast)

Forecast is more than 12 hours old.

Closest forecast is Skiathos Island National Airport, 33.1 nm (61.3 km) E. Retrieved 2012/09/27 00:18 UTC (6 years ago):

TAF LGSK 272300Z 2800/2909 01010KT 9999 FEW020